Flight Track Log - Related Links

Times and Time Zones

All times are in EDT time to prevent confusion due to time zone crossing. See the SWA1960 flight status page for this flight to view local times or setup timezone preferences in your user account.

Time Position Orientation Groundspeed Altitude Reporting Facility
EDT Latitude Longitude Course Direction KTS MPH feet Rate Location/Type
Mon 02:18:49 PM 39.1333 -76.6333 180° South 173 199 2,600  Level Potomac TRACON
Mon 02:19:55 PM 39.0833 -76.5667 134° Southeast 238 274 4,700 2,581 Climbing Potomac TRACON
Mon 02:21:41 PM 39.0083 -76.4572 131° Southeast 269 310 10,000 2,582 Climbing Washington Center
Mon 02:22:40 PM 38.9208 -76.4453 174° South 268 308 11,800 1,966 Climbing Washington Center
Mon 02:23:40 PM 38.8328 -76.5083 209° Southwest 302 348 13,900 1,041 Climbing Washington Center
Mon 02:24:00 PM 38.6639 -76.9665 180° South  Level Estimated
Mon 02:24:41 PM 38.7489 -76.5767 212° Southwest 329 379 13,900  Level Washington Center
Mon 02:25:42 PM 38.6628 -76.6472 213° Southwest 356 410 15,700 2,319 Climbing Washington Center
Mon 02:26:40 PM 38.5744 -76.7122 210° Southwest 362 417 18,500 2,644 Climbing Washington Center
Mon 02:27:40 PM 38.4661 -76.7161 182° South 367 422 20,900 2,529 Climbing Washington Center
Mon 02:28:41 PM 38.3536 -76.7011 174° South 382 440 23,600 2,628 Climbing Washington Center
Mon 02:29:41 PM 38.2433 -76.6836 173° South 382 440 26,200 2,182 Climbing Washington Center
Mon 02:30:42 PM 38.1331 -76.6661 173° South 394 453 28,000 1,664 Climbing Washington Center
Mon 02:31:40 PM 38.0164 -76.6539 175° South 405 466 29,500 1,780 Climbing Washington Center
Mon 02:32:40 PM 37.9017 -76.6522 179° South 417 480 31,500 1,240 Climbing Washington Center
Mon 02:33:41 PM 37.7889 -76.6664 186° South 417 480 32,000 246 Climbing Washington Center
Mon 02:34:42 PM 37.6761 -76.6833 187° South 417 480 32,000 149 Level Washington Center
Mon 02:35:42 PM 37.5633 -76.6975 186° South 417 480 32,300 1,271 Climbing Washington Center
Mon 02:36:40 PM 37.4547 -76.7117 186° South 405 466 34,500 1,700 Climbing Washington Center
Mon 02:37:42 PM 37.3542 -76.7467 195° South 391 450 35,700 984 Climbing Washington Center
Mon 02:38:42 PM 37.2517 -76.7894 198° South 391 450 36,500 864 Climbing Washington Center
Mon 02:39:40 PM 37.1469 -76.8322 198° South 391 450 37,400 756 Climbing Washington Center
Mon 02:40:41 PM 37.0442 -76.8772 199° South 396 456 38,000 303 Climbing Washington Center
Mon 02:41:39 PM 36.9394 -76.9197 198° South 396 456 38,000  Level Washington Center
Mon 02:42:40 PM 36.8389 -76.9622 199° South 396 456 38,000  Level Washington Center
Mon 02:43:40 PM 36.7383 -77.0019 198° South 386 444 38,000  Level Washington Center
Mon 02:44:41 PM 36.6497 -77.0728 213° Southwest 379 436 38,000  Level Washington Center
Mon 02:45:39 PM 36.5881 -77.1700 232° Southwest 374 430 38,000  Level Washington Center
Mon 02:46:40 PM 36.5075 -77.2508 219° Southwest 362 417 38,000  Level Washington Center
Mon 02:47:41 PM 36.4211 -77.3214 213° Southwest 372 428 38,000  Level Washington Center
Mon 02:48:42 PM 36.3386 -77.3917 214° Southwest 372 428 38,000  Level Washington Center
Mon 02:49:40 PM 36.2500 -77.4669 214° Southwest 366 421 38,000  Level Washington Center
Mon 02:50:40 PM 36.1631 -77.5397 214° Southwest 366 421 38,000  Level Washington Center
Mon 02:51:40 PM 36.0786 -77.6094 214° Southwest 366 421 38,000  Level Washington Center
Mon 02:52:41 PM 35.9897 -77.6792 212° Southwest 372 428 38,000  Level Washington Center
Mon 02:53:41 PM 35.9008 -77.7536 214° Southwest 379 436 38,000  Level Washington Center
Mon 02:54:40 PM 35.8161 -77.8231 214° Southwest 379 436 38,000  Level Washington Center
Mon 02:55:41 PM 35.7269 -77.8947 213° Southwest 379 436 38,000  Level Washington Center
Mon 02:56:41 PM 35.6403 -77.9639 213° Southwest 379 436 38,000  Level Washington Center
Mon 02:57:40 PM 35.5533 -78.0328 213° Southwest 379 436 38,000  Level Washington Center
Mon 02:58:40 PM 35.4683 -78.1014 213° Southwest 379 436 38,000  Level Washington Center
Mon 02:59:41 PM 35.3900 -78.1603 212° Southwest 379 436 38,000  Level Washington Center
Mon 03:00:41 PM 35.3008 -78.2286 212° Southwest 379 436 38,000 -1,050 Level Washington Center
Mon 03:01:41 PM 35.2117 -78.2994 213° Southwest 379 436 35,900 -1,636 Descending Washington Center
Mon 03:02:42 PM 35.1203 -78.3700 212° Southwest 379 436 34,700 -1,140 Descending Washington Center
Mon 03:03:42 PM 35.0311 -78.4381 212° Southwest 379 436 33,600 -1,068 Descending Washington Center
Mon 03:04:40 PM 34.9417 -78.5083 213° Southwest 379 436 32,600 -1,128 Descending Washington Center
Mon 03:08:40 PM 34.5992 -78.7686 212° Southwest 359 413 28,000 -920 Descending Jacksonville Center
Mon 03:09:40 PM 34.5158 -78.8306 211° Southwest 354 407 28,000  Level Jacksonville Center
Mon 03:10:40 PM 34.4286 -78.9053 215° Southwest 349 402 28,000 -100 Level Jacksonville Center
Mon 03:11:40 PM 34.3428 -78.9694 212° Southwest 359 413 27,800 -600 Descending Jacksonville Center
Mon 03:12:40 PM 34.2592 -79.0261 209° Southwest 359 413 26,800 -1,000 Descending Jacksonville Center
Mon 03:13:40 PM 34.1686 -79.0703 202° Southwest 353 406 25,800 -1,000 Descending Jacksonville Center
Mon 03:14:40 PM 34.1000 -79.1461 222° Southwest 347 399 24,800 -1,000 Descending Jacksonville Center
Mon 03:15:40 PM 34.0314 -79.2242 223° Southwest 342 394 23,800 -1,000 Descending Jacksonville Center
Mon 03:16:40 PM 33.9625 -79.2997 222° Southwest 342 394 22,800 -1,000 Descending Jacksonville Center
Mon 03:17:40 PM 33.8869 -79.3578 213° Southwest 337 388 21,800 -1,250 Descending Jacksonville Center
Mon 03:18:40 PM 33.8092 -79.4108 210° Southwest 331 381 20,300 -1,650 Descending Jacksonville Center
Mon 03:19:40 PM 33.7375 -79.4611 210° Southwest 312 359 18,500 -1,650 Descending Jacksonville Center
Mon 03:20:40 PM 33.6742 -79.5086 212° Southwest 312 359 17,000 -1,750 Descending Jacksonville Center
Mon 03:21:40 PM 33.6006 -79.5611 211° Southwest 312 359 15,000 -2,050 Descending Jacksonville Center
Mon 03:22:40 PM 33.5247 -79.6164 211° Southwest 318 366 12,900 -2,050 Descending Jacksonville Center
Mon 03:23:40 PM 33.4489 -79.6714 211° Southwest 318 366 10,900 -1,050 Descending Jacksonville Center
Mon 03:24:40 PM 33.3833 -79.7236 214° Southwest 310 357 10,800 -950 Descending Jacksonville Center
Mon 03:25:40 PM 33.3286 -79.7803 221° Southwest 280 322 9,000 -1,850 Descending Jacksonville Center
Mon 03:26:40 PM 33.2736 -79.8367 221° Southwest 269 310 7,100 -1,800 Descending Jacksonville Center
Mon 03:27:40 PM 33.2164 -79.8958 221° Southwest 269 310 5,400 -1,550 Descending Jacksonville Center
Mon 03:28:40 PM 33.1617 -79.9547 222° Southwest 269 310 4,000 -1,200 Descending Jacksonville Center
Mon 03:29:40 PM 33.1019 -79.9989 212° Southwest 269 310 3,000 -1,050 Descending Jacksonville Center
Mon 03:30:40 PM 33.0372 -79.9958 178° South 230 265 1,900 -700 Descending Jacksonville Center
Mon 03:31:40 PM 32.9850 -79.9975 182° South 216 249 1,600 -300 Descending Jacksonville Center
Mon 03:33:00 PM 32.8986 -80.0405 207° Southwest  Level Estimated
Mon 03:40:00 PM 32.8986 -80.0405 207° Southwest  Level Estimated
Mon 03:41:00 PM 32.8986 -80.0405 207° Southwest  Level Estimated
Mon 03:42:00 PM 32.8986 -80.0405 207° Southwest  Level Estimated

Login

Don't have an account? Register now (free) for customized features, flight alerts, and more!